createdAt,value
2018-12-23T00:02:26.906Z,89.50
2018-12-23T00:04:56.311Z,89.80
2018-12-23T00:07:27.074Z,89.80
2018-12-23T00:09:56.447Z,89.20
2018-12-23T00:12:29.058Z,89.30
2018-12-23T00:14:58.396Z,89.00
2018-12-23T00:17:27.869Z,89.10
2018-12-23T00:19:57.351Z,88.80
2018-12-23T00:22:26.712Z,88.90
2018-12-23T00:24:55.982Z,88.50
2018-12-23T00:27:26.482Z,88.40
2018-12-23T00:29:55.946Z,88.40
2018-12-23T00:32:25.287Z,88.70
2018-12-23T00:34:54.665Z,89.00
2018-12-23T00:37:24.307Z,88.70
2018-12-23T00:39:53.817Z,88.80
2018-12-23T00:42:23.278Z,88.90
2018-12-23T00:44:52.600Z,89.00
2018-12-23T00:47:21.957Z,89.10
2018-12-23T00:49:51.272Z,88.80
2018-12-23T00:52:20.763Z,88.60
2018-12-23T00:54:50.178Z,88.90
2018-12-23T00:57:19.657Z,88.60
2018-12-23T00:59:49.718Z,88.20
2018-12-23T01:02:19.280Z,88.60
2018-12-23T01:04:48.697Z,88.10
2018-12-23T01:07:18.118Z,88.00
2018-12-23T01:09:47.618Z,88.60
2018-12-23T01:12:16.974Z,88.00
2018-12-23T01:14:46.529Z,88.40
2018-12-23T01:17:15.914Z,88.50
2018-12-23T01:19:45.269Z,88.30
2018-12-23T01:22:14.647Z,87.70
2018-12-23T01:24:44.131Z,88.40
2018-12-23T01:27:13.510Z,88.20
2018-12-23T01:29:42.837Z,88.00
2018-12-23T01:32:12.144Z,88.50
2018-12-23T01:34:41.395Z,88.30
2018-12-23T01:37:10.668Z,88.00
2018-12-23T01:39:39.983Z,88.00
2018-12-23T01:42:09.400Z,87.70
2018-12-23T01:44:38.804Z,87.60
2018-12-23T01:47:08.838Z,87.50
2018-12-23T01:49:38.128Z,87.30
2018-12-23T01:52:07.525Z,87.10
2018-12-23T01:54:36.851Z,87.10
2018-12-23T01:57:09.060Z,87.10
2018-12-23T01:59:38.444Z,86.60
2018-12-23T02:02:07.788Z,86.20
2018-12-23T02:04:37.307Z,86.00
2018-12-23T02:07:06.581Z,85.90
2018-12-23T02:09:35.929Z,85.80
2018-12-23T02:12:06.333Z,85.30
2018-12-23T02:14:35.533Z,85.40
2018-12-23T02:17:04.939Z,85.80
2018-12-23T02:19:34.420Z,85.80
2018-12-23T02:22:03.860Z,86.10
2018-12-23T02:24:33.204Z,86.50
2018-12-23T02:27:02.620Z,86.60
2018-12-23T02:29:32.065Z,86.70
2018-12-23T02:32:01.503Z,86.30
2018-12-23T02:34:30.807Z,86.20
2018-12-23T02:37:00.048Z,86.40
2018-12-23T02:39:29.716Z,86.70
2018-12-23T02:41:59.119Z,86.00
2018-12-23T02:44:28.470Z,86.10
2018-12-23T02:46:57.903Z,86.10
2018-12-23T02:49:27.260Z,85.30
2018-12-23T02:51:56.853Z,85.30
2018-12-23T02:54:26.102Z,84.60
2018-12-23T02:56:55.525Z,84.90
2018-12-23T02:59:24.797Z,85.60
2018-12-23T03:01:54.164Z,84.80
2018-12-23T03:04:24.357Z,84.50
2018-12-23T03:06:53.667Z,84.30
2018-12-23T03:09:23.008Z,84.30
2018-12-23T03:11:52.474Z,84.00
2018-12-23T03:14:21.843Z,84.10
2018-12-23T03:16:51.130Z,84.00
2018-12-23T03:19:20.466Z,84.80
2018-12-23T03:21:49.904Z,84.10
2018-12-23T03:24:19.206Z,84.00
2018-12-23T03:26:48.835Z,84.10
2018-12-23T03:29:18.126Z,84.30
2018-12-23T03:31:47.372Z,84.00
2018-12-23T03:34:16.733Z,84.30
2018-12-23T03:36:46.129Z,84.30
2018-12-23T03:39:15.448Z,84.00
2018-12-23T03:41:45.210Z,84.30
2018-12-23T03:44:14.535Z,84.20
2018-12-23T03:46:43.867Z,84.40
2018-12-23T03:49:13.247Z,84.60
2018-12-23T03:51:42.525Z,84.30
2018-12-23T03:54:11.722Z,84.50
2018-12-23T03:56:41.128Z,84.20
2018-12-23T03:59:10.433Z,85.00
2018-12-23T04:01:39.789Z,85.10
2018-12-23T04:04:09.168Z,84.50
2018-12-23T04:06:38.404Z,84.20
2018-12-23T04:09:07.821Z,84.40
2018-12-23T04:11:56.770Z,84.50
2018-12-23T04:14:26.156Z,84.60
2018-12-23T04:16:55.399Z,84.60
2018-12-23T04:19:24.774Z,84.60
2018-12-23T04:21:54.180Z,84.80
2018-12-23T04:24:23.408Z,84.60
2018-12-23T04:26:52.663Z,85.20
2018-12-23T04:29:22.072Z,85.00
2018-12-23T04:31:51.257Z,85.00
2018-12-23T04:34:20.560Z,84.80
2018-12-23T04:36:49.824Z,84.60
2018-12-23T04:39:19.090Z,84.30
2018-12-23T04:41:48.555Z,84.70
2018-12-23T04:44:17.843Z,84.90
2018-12-23T04:46:47.158Z,85.00
2018-12-23T04:49:19.208Z,85.00
2018-12-23T04:51:48.482Z,85.20
2018-12-23T04:54:17.858Z,85.30
2018-12-23T04:56:47.171Z,85.60
2018-12-23T04:59:16.513Z,85.50
2018-12-23T05:01:45.854Z,85.40
2018-12-23T05:04:15.215Z,85.60
2018-12-23T05:06:44.617Z,85.10
2018-12-23T05:09:14.021Z,85.30
2018-12-23T05:11:43.389Z,85.40
2018-12-23T05:14:13.581Z,85.60
2018-12-23T05:16:42.874Z,85.70
2018-12-23T05:19:12.201Z,85.40
2018-12-23T05:21:42.653Z,85.50
2018-12-23T05:24:11.919Z,85.80
2018-12-23T05:26:41.566Z,85.70
2018-12-23T05:29:10.957Z,85.80
2018-12-23T05:31:40.168Z,85.80
2018-12-23T05:34:09.431Z,86.00
2018-12-23T05:36:38.639Z,86.60
2018-12-23T05:39:08.314Z,86.00
2018-12-23T05:41:37.616Z,85.70
2018-12-23T05:44:06.875Z,85.80
2018-12-23T05:46:36.170Z,85.70
2018-12-23T05:49:05.541Z,86.80
2018-12-23T05:51:34.839Z,86.00
2018-12-23T05:54:04.170Z,85.90
2018-12-23T05:56:33.608Z,86.10
2018-12-23T05:59:04.068Z,86.00
2018-12-23T06:01:33.588Z,86.00
2018-12-23T06:04:04.609Z,85.80
2018-12-23T06:06:33.952Z,86.10
2018-12-23T06:09:05.472Z,86.10
2018-12-23T06:11:34.959Z,86.50
2018-12-23T06:14:04.300Z,87.20
2018-12-23T06:16:33.663Z,86.40
2018-12-23T06:19:02.957Z,86.60
2018-12-23T06:21:32.354Z,86.40
2018-12-23T06:24:01.767Z,86.50
2018-12-23T06:26:31.268Z,86.30
2018-12-23T06:29:00.634Z,86.50
2018-12-23T06:31:30.068Z,87.40
2018-12-23T06:33:59.356Z,87.00
2018-12-23T06:36:29.794Z,87.60
2018-12-23T06:38:59.153Z,87.40
2018-12-23T06:41:28.472Z,87.40
2018-12-23T06:43:57.782Z,87.40
2018-12-23T06:46:27.285Z,87.30
2018-12-23T06:48:57.825Z,87.20
2018-12-23T06:51:27.727Z,87.00
2018-12-23T06:53:57.043Z,87.10
2018-12-23T06:56:26.470Z,87.30
2018-12-23T06:58:55.680Z,87.10
2018-12-23T07:01:25.115Z,87.50
2018-12-23T07:03:54.485Z,87.30
2018-12-23T07:06:23.926Z,87.40
2018-12-23T07:08:56.591Z,87.50
2018-12-23T07:11:25.980Z,87.70
2018-12-23T07:13:55.405Z,87.70
2018-12-23T07:16:24.754Z,87.70
2018-12-23T07:18:54.164Z,88.00
2018-12-23T07:21:23.494Z,88.10
2018-12-23T07:23:52.725Z,88.20
2018-12-23T07:26:22.111Z,88.20
2018-12-23T07:28:51.389Z,88.30
2018-12-23T07:31:20.830Z,88.20
2018-12-23T07:33:50.284Z,88.30
2018-12-23T07:36:19.604Z,88.30
2018-12-23T07:38:50.794Z,88.60
2018-12-23T07:41:20.127Z,89.20
2018-12-23T07:43:49.532Z,88.60
2018-12-23T07:46:18.932Z,88.60
2018-12-23T07:48:48.267Z,88.90
2018-12-23T07:51:17.495Z,89.30
2018-12-23T07:53:46.862Z,89.00
2018-12-23T07:56:16.272Z,89.00
2018-12-23T07:58:46.382Z,88.70
2018-12-23T08:01:15.862Z,88.90
2018-12-23T08:03:45.683Z,88.90
2018-12-23T08:06:15.784Z,89.50
2018-12-23T08:08:45.255Z,88.90
2018-12-23T08:11:14.664Z,89.50
2018-12-23T08:13:44.082Z,89.00
2018-12-23T08:16:13.373Z,89.10
2018-12-23T08:18:42.741Z,89.40
2018-12-23T08:21:13.094Z,89.30
2018-12-23T08:23:49.241Z,89.20
2018-12-23T08:26:18.869Z,89.30
2018-12-23T08:28:48.169Z,89.20
2018-12-23T08:31:19.168Z,89.00
2018-12-23T08:33:48.482Z,89.20
2018-12-23T08:36:17.851Z,89.30
2018-12-23T08:38:47.259Z,89.10
2018-12-23T08:41:17.641Z,89.10
2018-12-23T08:43:47.530Z,89.10
2018-12-23T08:46:16.825Z,88.90
2018-12-23T08:48:46.253Z,89.30
2018-12-23T08:51:15.612Z,89.20
2018-12-23T08:53:44.951Z,89.00
2018-12-23T08:56:14.453Z,88.80
2018-12-23T08:58:45.295Z,88.80
2018-12-23T09:01:14.712Z,88.70
2018-12-23T09:03:44.530Z,88.40
2018-12-23T09:06:13.878Z,88.00
2018-12-23T09:08:43.152Z,88.00
2018-12-23T09:11:12.600Z,88.00
2018-12-23T09:13:41.942Z,88.00
2018-12-23T09:16:11.270Z,88.10
2018-12-23T09:18:40.466Z,88.00
2018-12-23T09:21:09.733Z,88.30
2018-12-23T09:23:42.170Z,87.10
2018-12-23T09:29:19.967Z,87.30
2018-12-23T09:32:01.940Z,87.00
2018-12-23T09:34:31.232Z,87.00
2018-12-23T09:37:00.651Z,86.80
2018-12-23T09:39:30.151Z,86.30
2018-12-23T09:41:59.412Z,86.40
2018-12-23T09:44:28.782Z,86.50
2018-12-23T09:46:58.245Z,86.10
2018-12-23T09:49:27.562Z,86.40
2018-12-23T09:51:57.056Z,87.00
2018-12-23T09:54:26.366Z,86.20
2018-12-23T09:56:56.884Z,86.30
2018-12-23T09:59:26.247Z,85.60
2018-12-23T10:01:55.649Z,85.10
2018-12-23T10:07:55.638Z,85.10
2018-12-23T10:16:45.296Z,82.90
2018-12-23T10:19:14.672Z,82.90
2018-12-23T10:21:44.041Z,83.30
2018-12-23T10:24:13.552Z,82.20
2018-12-23T10:26:42.820Z,81.80
2018-12-23T10:29:12.247Z,82.10
2018-12-23T10:31:41.668Z,81.30
2018-12-23T10:34:10.898Z,81.60
2018-12-23T10:36:40.330Z,81.60
2018-12-23T10:39:09.720Z,81.60
2018-12-23T10:41:39.177Z,81.60
2018-12-23T10:44:08.594Z,81.90
2018-12-23T10:46:37.921Z,82.00
2018-12-23T10:49:08.687Z,81.80
2018-12-23T10:52:04.181Z,81.70
2018-12-23T10:55:12.015Z,81.50
2018-12-23T11:01:29.891Z,81.30
2018-12-23T11:04:02.352Z,80.40
2018-12-23T11:06:31.796Z,80.30
2018-12-23T11:09:01.227Z,79.90
2018-12-23T11:11:31.617Z,79.50
2018-12-23T11:14:16.621Z,79.70
2018-12-23T11:17:17.244Z,79.40
2018-12-23T11:23:22.805Z,79.20
2018-12-23T11:26:41.935Z,78.90
2018-12-23T11:29:45.610Z,78.50
2018-12-23T11:35:57.430Z,79.80
2018-12-23T11:38:35.494Z,79.40
2018-12-23T11:41:01.946Z,79.90
2018-12-23T11:43:44.564Z,79.80
2018-12-23T11:46:33.020Z,79.70
2018-12-23T11:49:05.871Z,79.50
2018-12-23T11:51:35.214Z,78.50
2018-12-23T11:54:04.749Z,77.60
2018-12-23T11:56:34.240Z,76.70
2018-12-23T11:59:05.141Z,76.10
2018-12-23T12:01:42.127Z,75.80
2018-12-23T12:04:12.186Z,75.10
2018-12-23T12:06:41.517Z,74.60
2018-12-23T12:09:10.947Z,74.70
2018-12-23T12:11:40.587Z,73.30
2018-12-23T12:14:09.980Z,74.00
2018-12-23T12:16:39.414Z,74.70
2018-12-23T12:19:08.777Z,75.50
2018-12-23T12:21:38.114Z,76.30
2018-12-23T12:24:07.810Z,77.10
2018-12-23T12:26:37.214Z,77.50
2018-12-23T12:29:06.566Z,78.00
2018-12-23T12:36:01.045Z,78.50
2018-12-23T12:57:17.201Z,78.70
2018-12-23T13:00:16.525Z,79.30
2018-12-23T13:03:49.952Z,80.00
2018-12-23T13:06:26.570Z,80.50
2018-12-23T13:09:04.144Z,80.70
2018-12-23T13:11:58.755Z,81.20
2018-12-23T13:14:29.250Z,80.60
2018-12-23T13:17:47.993Z,80.60
2018-12-23T13:20:42.073Z,80.80
2018-12-23T13:23:27.197Z,81.00
2018-12-23T13:26:17.191Z,81.40
2018-12-23T13:29:09.789Z,81.10
2018-12-23T13:32:10.922Z,80.60
2018-12-23T13:35:29.492Z,80.80
2018-12-23T13:38:37.328Z,81.30
2018-12-23T13:42:09.061Z,81.40
2018-12-23T13:45:54.793Z,81.60
2018-12-23T13:49:22.483Z,82.60
2018-12-23T13:52:42.676Z,82.20
2018-12-23T13:56:29.607Z,82.20
2018-12-23T14:00:03.196Z,82.00
2018-12-23T14:03:31.844Z,82.50
2018-12-23T14:07:32.770Z,83.00
2018-12-23T14:11:07.640Z,83.30
2018-12-23T14:14:37.400Z,83.00
2018-12-23T14:17:50.083Z,83.70
2018-12-23T14:20:39.634Z,83.80
2018-12-23T14:23:45.126Z,84.00
2018-12-23T14:26:40.823Z,84.40
2018-12-23T14:30:23.817Z,84.80
2018-12-23T14:33:07.355Z,86.50
2018-12-23T14:36:10.255Z,89.00
2018-12-23T14:39:04.630Z,89.30
2018-12-23T14:41:37.602Z,89.60
2018-12-23T14:44:25.075Z,90.40
2018-12-23T14:46:58.744Z,90.90
2018-12-23T14:49:45.996Z,91.40
2018-12-23T14:52:26.992Z,91.80
2018-12-23T14:55:04.878Z,92.30
2018-12-23T14:58:02.154Z,92.60
2018-12-23T15:00:45.014Z,93.00
2018-12-23T15:03:20.527Z,93.40
2018-12-23T15:06:02.690Z,93.80
2018-12-23T15:08:45.643Z,93.90
2018-12-23T15:11:32.653Z,94.20
2018-12-23T15:14:12.256Z,94.50
2018-12-23T15:17:17.695Z,94.70
2018-12-23T15:20:06.583Z,95.00
2018-12-23T15:23:10.702Z,95.30
2018-12-23T15:26:12.786Z,95.40
2018-12-23T15:29:16.462Z,95.50
2018-12-23T15:32:08.303Z,95.80
2018-12-23T15:34:43.937Z,95.90
2018-12-23T15:37:16.645Z,96.00
2018-12-23T15:39:47.607Z,96.10
2018-12-23T15:42:44.907Z,96.10
2018-12-23T15:46:49.567Z,96.10
2018-12-23T15:49:47.649Z,96.10
2018-12-23T15:53:43.780Z,96.30
2018-12-23T15:57:34.211Z,96.30
2018-12-23T16:01:22.279Z,96.30
2018-12-23T16:04:40.184Z,96.40
2018-12-23T16:08:37.217Z,96.50
2018-12-23T16:11:46.283Z,96.60
2018-12-23T16:14:16.685Z,96.70
2018-12-23T16:16:50.554Z,97.00
2018-12-23T16:19:47.215Z,97.10
2018-12-23T16:22:47.977Z,97.20
2018-12-23T16:26:04.884Z,97.30
2018-12-23T16:28:41.469Z,97.40
2018-12-23T16:31:42.945Z,97.50
2018-12-23T16:34:27.436Z,97.70
2018-12-23T16:37:26.392Z,97.90
2018-12-23T16:40:06.848Z,98.20
2018-12-23T16:42:38.928Z,98.50
2018-12-23T16:45:11.100Z,98.80
2018-12-23T16:47:43.272Z,99.20
2018-12-23T16:50:15.917Z,99.20
2018-12-23T16:52:47.332Z,99.20
2018-12-23T16:55:19.101Z,99.30
2018-12-23T16:57:50.126Z,99.50
2018-12-23T17:00:21.066Z,99.70
2018-12-23T17:02:51.776Z,99.90
2018-12-23T17:05:22.764Z,99.90
2018-12-23T17:07:53.418Z,99.90
2018-12-23T17:10:26.181Z,99.90
2018-12-23T17:12:57.062Z,99.90
2018-12-23T17:15:27.754Z,99.90
2018-12-23T17:17:58.429Z,99.90
2018-12-23T17:20:29.499Z,99.90
2018-12-23T17:23:00.976Z,99.90
2018-12-23T17:25:31.860Z,99.90
2018-12-23T17:28:03.440Z,99.90
2018-12-23T17:30:35.797Z,99.90
2018-12-23T17:33:07.077Z,99.90
2018-12-23T17:35:38.224Z,99.90
2018-12-23T17:38:08.994Z,99.90
2018-12-23T17:40:39.599Z,99.90
2018-12-23T17:43:10.217Z,99.90
2018-12-23T17:45:40.843Z,99.90
2018-12-23T17:48:11.281Z,99.90
2018-12-23T17:50:41.907Z,99.90
2018-12-23T17:53:12.457Z,99.90
2018-12-23T17:55:43.001Z,99.90
2018-12-23T17:58:13.469Z,99.90
2018-12-23T18:00:44.697Z,99.90
2018-12-23T18:03:15.185Z,99.90
2018-12-23T18:05:45.820Z,99.90
2018-12-23T18:08:16.171Z,99.90
2018-12-23T18:10:47.899Z,99.90
2018-12-23T18:13:18.509Z,99.90
2018-12-23T18:15:49.126Z,99.90
2018-12-23T18:18:40.173Z,99.90
2018-12-23T18:21:10.731Z,99.90
2018-12-23T18:23:41.422Z,99.90
2018-12-23T18:26:12.059Z,99.90
2018-12-23T18:28:42.781Z,99.90
2018-12-23T18:31:13.310Z,99.90
2018-12-23T18:33:43.838Z,99.90
2018-12-23T18:36:14.571Z,99.90
2018-12-23T18:38:45.319Z,99.90
2018-12-23T18:41:15.815Z,99.90
2018-12-23T18:43:46.304Z,99.90
2018-12-23T18:46:16.779Z,99.90
2018-12-23T18:48:47.286Z,99.90
2018-12-23T18:51:17.860Z,99.90
2018-12-23T18:53:48.422Z,99.90
2018-12-23T18:56:20.718Z,99.90
2018-12-23T18:58:53.405Z,99.90
2018-12-23T19:01:24.107Z,99.90
2018-12-23T19:03:54.985Z,99.90
2018-12-23T19:06:25.621Z,99.90
2018-12-23T19:09:11.078Z,99.90
2018-12-23T19:12:08.228Z,99.90
2018-12-23T19:15:16.831Z,99.90
2018-12-23T19:18:14.297Z,99.90
2018-12-23T19:21:22.980Z,99.90
2018-12-23T19:24:31.684Z,99.90
2018-12-23T19:27:29.222Z,99.90
2018-12-23T19:30:29.990Z,99.90
2018-12-23T19:33:17.767Z,99.90
2018-12-23T19:36:28.050Z,99.90
2018-12-23T19:39:30.811Z,99.90
2018-12-23T19:42:37.299Z,99.90
2018-12-23T19:45:45.979Z,99.90
2018-12-23T19:48:47.442Z,99.90
2018-12-23T19:51:53.472Z,99.90
2018-12-23T19:54:48.148Z,99.90
2018-12-23T19:57:43.226Z,99.90
2018-12-23T20:00:41.439Z,99.90
2018-12-23T20:03:28.546Z,99.90
2018-12-23T20:06:26.404Z,99.90
2018-12-23T20:09:19.698Z,99.90
2018-12-23T20:12:28.577Z,99.90
2018-12-23T20:15:20.986Z,99.90
2018-12-23T20:18:29.909Z,99.90
2018-12-23T20:21:25.817Z,99.90
2018-12-23T20:24:23.891Z,99.90
2018-12-23T20:27:34.883Z,99.90
2018-12-23T20:30:35.989Z,99.90
2018-12-23T20:33:46.259Z,99.80
2018-12-23T20:36:56.341Z,99.70
2018-12-23T20:39:50.802Z,99.70
2018-12-23T20:43:00.028Z,99.80
2018-12-23T20:45:55.917Z,99.90
2018-12-23T20:48:57.697Z,99.90
2018-12-23T20:52:06.291Z,99.90
2018-12-23T20:55:05.514Z,99.90
2018-12-23T20:58:14.156Z,99.90
2018-12-23T21:01:05.522Z,99.90
2018-12-23T21:03:50.818Z,99.80
2018-12-23T21:06:41.276Z,99.80
2018-12-23T21:09:50.017Z,99.80
2018-12-23T21:12:47.260Z,99.90
2018-12-23T21:16:04.216Z,99.90
2018-12-23T21:19:13.816Z,99.90
2018-12-23T21:22:09.708Z,99.90
2018-12-23T21:25:20.806Z,99.90
2018-12-23T21:28:38.334Z,99.90
2018-12-23T21:31:58.080Z,99.90
2018-12-23T21:35:09.340Z,99.90
2018-12-23T21:38:19.474Z,99.90
2018-12-23T21:41:28.112Z,99.90
2018-12-23T21:44:36.741Z,99.90
2018-12-23T21:47:32.033Z,99.90
2018-12-23T21:50:33.636Z,99.90
2018-12-23T21:53:31.461Z,99.90
2018-12-23T21:56:42.123Z,99.90
2018-12-23T21:59:45.528Z,99.90
2018-12-23T22:02:51.329Z,99.90
2018-12-23T22:05:57.350Z,99.90
2018-12-23T22:09:05.135Z,99.90
2018-12-23T22:12:03.628Z,99.90
2018-12-23T22:14:34.925Z,99.90
2018-12-23T22:17:05.469Z,99.90
2018-12-23T22:19:36.120Z,99.90
2018-12-23T22:22:06.624Z,99.90
2018-12-23T22:24:37.241Z,99.90
2018-12-23T22:27:07.936Z,99.90
2018-12-23T22:29:38.615Z,99.90
2018-12-23T22:32:09.089Z,99.90
2018-12-23T22:34:40.329Z,99.90
2018-12-23T22:37:10.870Z,99.90
2018-12-23T22:39:42.214Z,99.90
2018-12-23T22:42:12.841Z,99.50
2018-12-23T22:44:43.535Z,98.20
2018-12-23T22:47:14.003Z,97.40
2018-12-23T22:49:44.513Z,96.70
2018-12-23T22:52:15.116Z,96.80
2018-12-23T22:54:45.903Z,97.10
2018-12-23T22:57:16.517Z,96.90
2018-12-23T22:59:47.017Z,97.10
2018-12-23T23:02:17.697Z,96.90
2018-12-23T23:04:48.393Z,97.00
2018-12-23T23:07:18.978Z,97.00
2018-12-23T23:09:49.535Z,97.00
2018-12-23T23:12:20.243Z,97.00
2018-12-23T23:14:50.859Z,97.00
2018-12-23T23:17:21.427Z,97.20
2018-12-23T23:19:54.117Z,97.40
2018-12-23T23:22:29.080Z,97.60
2018-12-23T23:25:01.071Z,97.00
2018-12-23T23:27:31.561Z,96.60
2018-12-23T23:30:12.138Z,96.50
2018-12-23T23:32:42.823Z,96.50
2018-12-23T23:35:13.402Z,96.80
2018-12-23T23:37:44.376Z,96.30
2018-12-23T23:40:17.460Z,95.70
2018-12-23T23:42:48.003Z,95.80
2018-12-23T23:45:18.580Z,96.00
2018-12-23T23:47:51.140Z,96.20
2018-12-23T23:50:21.646Z,96.30
2018-12-23T23:52:52.255Z,96.30
2018-12-23T23:55:22.659Z,96.60
2018-12-23T23:57:53.387Z,95.60
